createdAt,value
2022-08-10T00:00:33.555Z,1001.32
2022-08-10T00:01:37.572Z,1001.35
2022-08-10T00:02:39.318Z,1001.38
2022-08-10T00:03:40.789Z,1001.33
2022-08-10T00:04:42.269Z,1001.33
2022-08-10T00:05:53.494Z,1001.32
2022-08-10T00:06:55.706Z,1001.34
2022-08-10T00:07:57.314Z,1001.32
2022-08-10T00:08:58.795Z,1001.33
2022-08-10T00:10:00.422Z,1001.4
2022-08-10T00:11:02.750Z,1001.39
2022-08-10T00:12:05.654Z,1001.4
2022-08-10T00:13:07.115Z,1001.35
2022-08-10T00:14:08.632Z,1001.43
2022-08-10T00:15:53.210Z,1001.39
2022-08-10T00:16:57.029Z,1001.41
2022-08-10T00:17:58.560Z,1001.43
2022-08-10T00:19:00.023Z,1001.46
2022-08-10T00:20:08.911Z,1001.46
2022-08-10T00:21:10.437Z,1001.46
2022-08-10T00:22:17.227Z,1001.46
2022-08-10T00:23:18.825Z,1001.52
2022-08-10T00:24:20.296Z,1001.51
2022-08-10T00:25:21.832Z,1001.51
2022-08-10T00:26:23.439Z,1001.49
2022-08-10T00:28:04.145Z,1001.47
2022-08-10T00:29:10.144Z,1001.43
2022-08-10T00:30:13.502Z,1001.42
2022-08-10T00:31:15.073Z,1001.41
2022-08-10T00:32:16.534Z,1001.41
2022-08-10T00:33:18.079Z,1001.35
2022-08-10T00:34:19.555Z,1001.34
2022-08-10T00:35:21.094Z,1001.37
2022-08-10T00:36:22.568Z,1001.33
2022-08-10T00:37:24.140Z,1001.31
2022-08-10T00:38:25.692Z,1001.32
2022-08-10T00:39:27.320Z,1001.27
2022-08-10T00:40:38.196Z,1001.28
2022-08-10T00:41:39.728Z,1001.31
2022-08-10T00:42:41.236Z,1001.24
2022-08-10T00:43:42.724Z,1001.24
2022-08-10T00:44:44.309Z,1001.24
2022-08-10T00:46:00.367Z,1001.22
2022-08-10T00:47:02.009Z,1001.21
2022-08-10T00:48:03.640Z,1001.21
2022-08-10T00:49:05.097Z,1001.22
2022-08-10T00:50:06.597Z,1001.18
2022-08-10T00:51:08.250Z,1001.2
2022-08-10T00:52:09.836Z,1001.17
2022-08-10T00:53:11.358Z,1001.18
2022-08-10T00:54:25.253Z,1001.18
2022-08-10T00:55:26.937Z,1001.19
2022-08-10T00:57:18.223Z,1001.12
2022-08-10T00:58:20.115Z,1001.11
2022-08-10T00:59:21.701Z,1001.13
2022-08-10T01:00:23.240Z,1001.12
2022-08-10T01:02:11.730Z,1001.13
2022-08-10T01:03:13.473Z,1001.09
2022-08-10T01:05:01.805Z,1001.07
2022-08-10T01:06:04.392Z,1001.08
2022-08-10T01:07:05.933Z,1001.08
2022-08-10T01:08:07.457Z,1001.09
2022-08-10T01:09:09.059Z,1001.03
2022-08-10T01:10:10.517Z,1001.08
2022-08-10T01:12:41.686Z,1001.06
2022-08-10T01:13:43.574Z,1001.05
2022-08-10T01:14:45.101Z,1001.06
2022-08-10T01:15:46.569Z,1001.03
2022-08-10T01:16:48.026Z,1001.06
2022-08-10T01:17:51.621Z,1001.05
2022-08-10T01:18:53.258Z,1001.08
2022-08-10T01:19:54.725Z,1001.06
2022-08-10T01:20:56.202Z,1001.03
2022-08-10T01:21:57.706Z,1001.07
2022-08-10T01:22:59.191Z,1001.09
2022-08-10T01:24:00.647Z,1001.11
2022-08-10T01:25:02.134Z,1001.12
2022-08-10T01:26:30.396Z,1001.11
2022-08-10T01:27:33.420Z,1001.13
2022-08-10T01:28:34.861Z,1001.12
2022-08-10T01:29:36.339Z,1001.14
2022-08-10T01:30:37.788Z,1001.09
2022-08-10T01:31:39.245Z,1001.1
2022-08-10T01:32:40.727Z,1001.11
2022-08-10T01:34:02.522Z,1001.1
2022-08-10T01:35:04.267Z,1001.11
2022-08-10T01:36:05.746Z,1001.13
2022-08-10T01:37:07.326Z,1001.13
2022-08-10T01:38:08.819Z,1001.11
2022-08-10T01:39:10.419Z,1001.07
2022-08-10T01:40:13.979Z,1001.07
2022-08-10T01:41:18.254Z,1001.08
2022-08-10T01:42:19.815Z,1001.06
2022-08-10T01:43:21.416Z,1001.07
2022-08-10T01:44:22.922Z,1001.04
2022-08-10T01:45:24.558Z,1001.05
2022-08-10T01:46:26.084Z,1001.04
2022-08-10T01:47:28.589Z,1001.01
2022-08-10T01:48:30.159Z,1001.01
2022-08-10T01:49:31.761Z,1001
2022-08-10T01:50:33.208Z,1001
2022-08-10T01:51:34.720Z,1000.98
2022-08-10T01:52:36.919Z,1000.97
2022-08-10T01:53:41.772Z,1000.97
2022-08-10T01:54:43.330Z,1000.96
2022-08-10T01:55:44.852Z,1000.99
2022-08-10T01:56:46.421Z,1001.01
2022-08-10T01:57:47.961Z,1000.99
2022-08-10T01:58:49.471Z,1001.01
2022-08-10T02:00:03.277Z,1000.98
2022-08-10T02:01:05.159Z,1001.01
2022-08-10T02:02:06.735Z,1001
2022-08-10T02:03:08.366Z,1000.99
2022-08-10T02:04:10.030Z,1000.97
2022-08-10T02:05:11.512Z,1000.99
2022-08-10T02:06:13.084Z,1001
2022-08-10T02:07:14.540Z,1000.99
2022-08-10T02:08:16.156Z,1000.98
2022-08-10T02:09:17.807Z,1000.97
2022-08-10T02:10:19.454Z,1000.94
2022-08-10T02:11:21.101Z,1000.97
2022-08-10T02:12:22.588Z,1000.98
2022-08-10T02:13:24.076Z,1000.96
2022-08-10T02:14:34.098Z,1000.96
2022-08-10T02:15:36.560Z,1000.99
2022-08-10T02:17:02.795Z,1001.01
2022-08-10T02:18:04.248Z,1001
2022-08-10T02:19:05.800Z,1001.03
2022-08-10T02:20:09.232Z,1001.04
2022-08-10T02:21:10.858Z,1001.04
2022-08-10T02:22:46.268Z,1001.05
2022-08-10T02:24:00.637Z,1001.07
2022-08-10T02:25:02.285Z,1001.11
2022-08-10T02:26:03.769Z,1001.11
2022-08-10T02:27:05.219Z,1001.1
2022-08-10T02:28:06.784Z,1001.13
2022-08-10T02:29:08.386Z,1001.06
2022-08-10T02:30:09.993Z,1001.1
2022-08-10T02:31:12.332Z,1001.12
2022-08-10T02:32:36.741Z,1001.12
2022-08-10T02:33:59.436Z,1001.09
2022-08-10T02:35:03.122Z,1001.07
2022-08-10T02:36:04.645Z,1001.05
2022-08-10T02:37:12.038Z,1001.14
2022-08-10T02:38:15.073Z,1001.08
2022-08-10T02:39:16.717Z,1001.11
2022-08-10T02:45:30.689Z,1001.13
2022-08-10T02:46:33.556Z,1001.12
2022-08-10T02:47:52.725Z,1001.15
2022-08-10T02:48:54.244Z,1001.13
2022-08-10T02:49:56.268Z,1001.19
2022-08-10T02:50:57.782Z,1001.16
2022-08-10T02:52:09.070Z,1001.2
2022-08-10T02:53:57.384Z,1001.22
2022-08-10T02:55:17.666Z,1001.22
2022-08-10T02:56:22.731Z,1001.22
2022-08-10T02:57:24.259Z,1001.21
2022-08-10T02:58:25.876Z,1001.18
2022-08-10T02:59:40.081Z,1001.17
2022-08-10T03:00:42.270Z,1001.19
2022-08-10T03:01:43.825Z,1001.16
2022-08-10T03:02:45.349Z,1001.17
2022-08-10T03:03:46.839Z,1001.21
2022-08-10T03:04:58.420Z,1001.15
2022-08-10T03:06:00.039Z,1001.17
2022-08-10T03:07:01.564Z,1001.16
2022-08-10T03:08:03.055Z,1001.17
2022-08-10T03:09:04.591Z,1001.18
2022-08-10T03:10:14.928Z,1001.16
2022-08-10T03:12:38.580Z,1001.16
2022-08-10T03:13:40.227Z,1001.18
2022-08-10T03:14:41.707Z,1001.15
2022-08-10T03:15:43.136Z,1001.17
2022-08-10T03:16:44.641Z,1001.19
2022-08-10T03:17:58.956Z,1001.14
2022-08-10T03:19:00.640Z,1001.18
2022-08-10T03:20:39.458Z,1001.16
2022-08-10T03:21:41.857Z,1001.16
2022-08-10T03:22:43.336Z,1001.18
2022-08-10T03:23:44.843Z,1001.12
2022-08-10T03:24:46.318Z,1001.21
2022-08-10T03:25:54.723Z,1001.21
2022-08-10T03:26:56.409Z,1001.18
2022-08-10T03:27:57.910Z,1001.2
2022-08-10T03:28:59.507Z,1001.22
2022-08-10T03:30:34.224Z,1001.19
2022-08-10T03:31:40.402Z,1001.17
2022-08-10T03:32:41.903Z,1001.17
2022-08-10T03:33:43.445Z,1001.2
2022-08-10T03:34:44.999Z,1001.18
2022-08-10T03:36:45.245Z,1001.15
2022-08-10T03:37:46.815Z,1001.16
2022-08-10T03:38:48.319Z,1001.18
2022-08-10T03:39:49.937Z,1001.22
2022-08-10T03:40:51.573Z,1001.18
2022-08-10T03:41:54.306Z,1001.22
2022-08-10T03:42:57.218Z,1001.21
2022-08-10T03:43:58.698Z,1001.17
2022-08-10T03:45:00.299Z,1001.18
2022-08-10T03:46:01.905Z,1001.19
2022-08-10T03:47:16.328Z,1001.17
2022-08-10T03:48:18.030Z,1001.21
2022-08-10T03:49:19.451Z,1001.22
2022-08-10T03:50:51.646Z,1001.18
2022-08-10T03:51:55.063Z,1001.18
2022-08-10T03:52:58.283Z,1001.23
2022-08-10T03:54:07.417Z,1001.22
2022-08-10T03:55:09.084Z,1001.21
2022-08-10T03:56:32.174Z,1001.2
2022-08-10T03:57:34.627Z,1001.21
2022-08-10T03:58:43.147Z,1001.2
2022-08-10T03:59:44.693Z,1001.21
2022-08-10T04:00:46.336Z,1001.22
2022-08-10T04:02:52.942Z,1001.24
2022-08-10T04:04:17.721Z,1001.23
2022-08-10T04:05:39.103Z,1001.21
2022-08-10T04:06:40.640Z,1001.21
2022-08-10T04:07:42.174Z,1001.2
2022-08-10T04:08:43.716Z,1001.22
2022-08-10T04:09:56.513Z,1001.23
2022-08-10T04:11:00.397Z,1001.25
2022-08-10T04:12:01.879Z,1001.24
2022-08-10T04:13:03.336Z,1001.26
2022-08-10T04:14:04.866Z,1001.26
2022-08-10T04:15:06.369Z,1001.27
2022-08-10T04:16:08.000Z,1001.27
2022-08-10T04:17:14.272Z,1001.27
2022-08-10T04:18:15.767Z,1001.33
2022-08-10T04:19:17.495Z,1001.3
2022-08-10T04:20:19.033Z,1001.3
2022-08-10T04:21:20.645Z,1001.35
2022-08-10T04:22:22.210Z,1001.3
2022-08-10T04:23:23.713Z,1001.31
2022-08-10T04:24:31.962Z,1001.3
2022-08-10T04:25:34.735Z,1001.32
2022-08-10T04:26:36.253Z,1001.29
2022-08-10T04:27:37.776Z,1001.29
2022-08-10T04:28:39.256Z,1001.31
2022-08-10T04:29:40.748Z,1001.31
2022-08-10T04:30:42.260Z,1001.3
2022-08-10T04:31:43.747Z,1001.33
2022-08-10T04:32:45.438Z,1001.29
2022-08-10T04:33:46.917Z,1001.32
2022-08-10T04:34:48.428Z,1001.33
2022-08-10T04:35:49.900Z,1001.33
2022-08-10T04:36:51.399Z,1001.34
2022-08-10T04:37:52.948Z,1001.35
2022-08-10T04:38:54.453Z,1001.29
2022-08-10T04:39:56.011Z,1001.33
2022-08-10T04:40:57.490Z,1001.3
2022-08-10T04:41:58.992Z,1001.33
2022-08-10T04:43:11.574Z,1001.35
2022-08-10T04:44:14.888Z,1001.33
2022-08-10T04:45:16.467Z,1001.3
2022-08-10T04:46:58.126Z,1001.33
2022-08-10T04:48:03.779Z,1001.31
2022-08-10T04:49:53.508Z,1001.35
2022-08-10T04:50:59.879Z,1001.33
2022-08-10T04:52:02.299Z,1001.33
2022-08-10T04:53:03.815Z,1001.33
2022-08-10T04:54:08.738Z,1001.29
2022-08-10T04:55:14.453Z,1001.27
2022-08-10T04:56:16.097Z,1001.3
2022-08-10T04:57:17.549Z,1001.28
2022-08-10T04:58:19.037Z,1001.34
2022-08-10T04:59:20.531Z,1001.33
2022-08-10T05:00:21.994Z,1001.28
2022-08-10T05:01:25.296Z,1001.32
2022-08-10T05:02:32.359Z,1001.34
2022-08-10T05:04:38.812Z,1001.3
2022-08-10T05:05:40.900Z,1001.3
2022-08-10T05:06:42.445Z,1001.34
2022-08-10T05:07:57.145Z,1001.31
2022-08-10T05:08:58.751Z,1001.26
2022-08-10T05:10:06.670Z,1001.28
2022-08-10T05:11:24.399Z,1001.28
2022-08-10T05:12:26.006Z,1001.27
2022-08-10T05:13:27.647Z,1001.27
2022-08-10T05:14:29.243Z,1001.29
2022-08-10T05:15:30.716Z,1001.31
2022-08-10T05:16:32.980Z,1001.31
2022-08-10T05:17:34.548Z,1001.32
2022-08-10T05:18:36.206Z,1001.35
2022-08-10T05:20:06.273Z,1001.31
2022-08-10T05:21:09.314Z,1001.32
2022-08-10T05:22:10.972Z,1001.33
2022-08-10T05:23:12.447Z,1001.26
2022-08-10T05:24:13.977Z,1001.34
2022-08-10T05:25:15.597Z,1001.34
2022-08-10T06:20:03.524Z,1001.52
2022-08-10T06:21:05.701Z,1001.48
2022-08-10T06:22:07.371Z,1001.56
2022-08-10T06:23:09.289Z,1001.5
2022-08-10T06:24:10.787Z,1001.47
2022-08-10T06:26:13.999Z,1001.52
2022-08-10T06:27:35.115Z,1001.48
2022-08-10T06:28:36.650Z,1001.55
2022-08-10T06:29:38.559Z,1001.53
2022-08-10T06:30:40.102Z,1001.59
2022-08-10T06:31:49.856Z,1001.59
2022-08-10T06:32:51.789Z,1001.6
2022-08-10T06:33:53.542Z,1001.62
2022-08-10T06:34:55.263Z,1001.64
2022-08-10T06:35:56.810Z,1001.62
2022-08-10T06:36:58.838Z,1001.63
2022-08-10T06:38:00.817Z,1001.67
2022-08-10T06:39:36.860Z,1001.67
2022-08-10T06:40:38.898Z,1001.7
2022-08-10T06:42:17.472Z,1001.71
2022-08-10T06:43:20.091Z,1001.7
2022-08-10T06:44:21.702Z,1001.67
2022-08-10T06:45:23.232Z,1001.66
2022-08-10T06:46:24.747Z,1001.65
2022-08-10T06:47:26.438Z,1001.61
2022-08-10T06:48:28.070Z,1001.63
2022-08-10T06:49:29.543Z,1001.62
2022-08-10T07:28:52.116Z,1001.68
2022-08-10T07:29:55.273Z,1001.66
2022-08-10T07:30:57.214Z,1001.6
2022-08-10T07:31:58.694Z,1001.62
2022-08-10T07:33:00.561Z,1001.64
2022-08-10T07:34:02.171Z,1001.6
2022-08-10T07:35:03.895Z,1001.68
2022-08-10T07:36:05.602Z,1001.65
2022-08-10T07:37:07.019Z,1001.65
2022-08-10T07:38:08.580Z,1001.64
2022-08-10T07:39:10.408Z,1001.62
2022-08-10T07:40:12.544Z,1001.59
2022-08-10T07:41:18.866Z,1001.56
2022-08-10T07:42:20.450Z,1001.58
2022-08-10T07:43:21.950Z,1001.56
2022-08-10T07:44:23.477Z,1001.57
2022-08-10T07:45:25.253Z,1001.58
2022-08-10T07:46:26.778Z,1001.59
2022-08-10T07:47:54.957Z,1001.59
2022-08-10T07:48:56.708Z,1001.62
2022-08-10T07:49:58.391Z,1001.55
2022-08-10T07:50:59.866Z,1001.56
2022-08-10T07:52:01.592Z,1001.62
2022-08-10T07:53:04.779Z,1001.6
2022-08-10T07:54:06.361Z,1001.61
2022-08-10T07:55:07.851Z,1001.59
2022-08-10T07:56:45.791Z,1001.57
2022-08-10T07:57:50.864Z,1001.58
2022-08-10T08:08:08.433Z,1001.59
2022-08-10T08:09:10.174Z,1001.58
2022-08-10T08:10:11.874Z,1001.58
2022-08-10T08:11:26.763Z,1001.62
2022-08-10T08:12:28.544Z,1001.58
2022-08-10T08:13:38.418Z,1001.62
2022-08-10T08:14:40.047Z,1001.61
2022-08-10T08:16:21.876Z,1001.68
2022-08-10T08:17:36.505Z,1001.59
2022-08-10T08:18:45.876Z,1001.62
2022-08-10T08:20:29.308Z,1001.63
2022-08-10T08:29:47.047Z,1001.63
2022-08-10T08:30:49.446Z,1001.64
2022-08-10T08:32:03.288Z,1001.65
2022-08-10T08:33:05.812Z,1001.64
2022-08-10T08:34:07.360Z,1001.63
2022-08-10T08:35:09.172Z,1001.59
2022-08-10T08:36:10.577Z,1001.62
2022-08-10T08:37:12.098Z,1001.6
2022-08-10T08:39:35.782Z,1001.57
2022-08-10T08:40:38.019Z,1001.61
2022-08-10T08:41:39.877Z,1001.64
2022-08-10T08:42:41.383Z,1001.64
2022-08-10T08:43:42.899Z,1001.61
2022-08-10T08:44:44.388Z,1001.63
2022-08-10T08:46:02.399Z,1001.59
2022-08-10T08:48:02.207Z,1001.57
2022-08-10T08:49:07.818Z,1001.52
2022-08-10T08:50:10.570Z,1001.5
2022-08-10T08:51:12.351Z,1001.52
2022-08-10T08:52:18.962Z,1001.51
2022-08-10T08:53:22.915Z,1001.52
2022-08-10T08:54:24.413Z,1001.5
2022-08-10T08:56:07.217Z,1001.45
2022-08-10T08:57:08.805Z,1001.45
2022-08-10T08:58:10.288Z,1001.46
2022-08-10T08:59:11.781Z,1001.47
2022-08-10T09:00:13.849Z,1001.42
2022-08-10T09:01:16.058Z,1001.46
2022-08-10T09:02:18.856Z,1001.44
2022-08-10T09:03:28.607Z,1001.41
2022-08-10T09:04:31.470Z,1001.37
2022-08-10T09:06:01.150Z,1001.35
2022-08-10T09:07:03.030Z,1001.39
2022-08-10T09:08:04.683Z,1001.47
2022-08-10T09:09:06.191Z,1001.41
2022-08-10T09:10:07.688Z,1001.45
2022-08-10T09:11:09.189Z,1001.39
2022-08-10T09:12:10.694Z,1001.4
2022-08-10T09:13:12.255Z,1001.42
2022-08-10T09:14:13.698Z,1001.44
2022-08-10T09:15:41.553Z,1001.41
2022-08-10T09:16:43.424Z,1001.38
2022-08-10T09:17:44.903Z,1001.38
2022-08-10T09:18:46.390Z,1001.33
2022-08-10T09:19:47.807Z,1001.37
2022-08-10T10:11:38.496Z,1000.73
2022-08-10T10:12:40.212Z,1000.69
2022-08-10T10:14:06.469Z,1000.71
2022-08-10T10:15:26.058Z,1000.68
2022-08-10T10:16:27.805Z,1000.66
2022-08-10T10:17:29.303Z,1000.63
2022-08-10T10:18:30.789Z,1000.64
2022-08-10T10:19:33.613Z,1000.61
2022-08-10T10:20:41.922Z,1000.63
2022-08-10T10:21:56.786Z,1000.6
2022-08-10T10:22:58.494Z,1000.61
2022-08-10T10:24:22.994Z,1000.6
2022-08-10T10:25:52.002Z,1000.6
2022-08-10T10:27:00.408Z,1000.62
2022-08-10T10:28:04.904Z,1000.61
2022-08-10T10:29:56.111Z,1000.54
2022-08-10T10:31:00.833Z,1000.56
2022-08-10T10:32:02.533Z,1000.54
2022-08-10T10:33:04.663Z,1000.52
2022-08-10T10:34:06.233Z,1000.46
2022-08-10T10:35:07.740Z,1000.47
2022-08-10T10:36:09.531Z,1000.42
2022-08-10T10:37:13.184Z,1000.43
2022-08-10T10:38:15.058Z,1000.42
2022-08-10T10:39:23.882Z,1000.44
2022-08-10T10:40:25.996Z,1000.39
2022-08-10T10:41:27.600Z,1000.4
2022-08-10T10:42:45.935Z,1000.42
2022-08-10T10:43:47.598Z,1000.47
2022-08-10T10:44:49.384Z,1000.43
2022-08-10T10:45:51.362Z,1000.42
2022-08-10T10:46:52.898Z,1000.44
2022-08-10T10:47:54.488Z,1000.47
2022-08-10T10:48:56.056Z,1000.45
2022-08-10T10:49:57.530Z,1000.43
2022-08-10T10:50:59.123Z,1000.39
2022-08-10T10:52:02.579Z,1000.4
2022-08-10T10:53:04.042Z,1000.42
2022-08-10T10:54:05.591Z,1000.43
2022-08-10T10:55:07.081Z,1000.43
2022-08-10T10:56:16.479Z,1000.44
2022-08-10T10:57:18.121Z,1000.47
2022-08-10T10:58:25.296Z,1000.47
2022-08-10T10:59:57.320Z,1000.42
2022-08-10T11:00:59.587Z,1000.44
2022-08-10T11:02:01.156Z,1000.42
2022-08-10T11:03:02.781Z,1000.38
2022-08-10T11:04:04.367Z,1000.39
2022-08-10T11:05:05.842Z,1000.37
2022-08-10T11:06:09.940Z,1000.39
2022-08-10T11:07:14.194Z,1000.42
2022-08-10T11:08:29.835Z,1000.39
2022-08-10T11:10:32.241Z,1000.36
2022-08-10T11:12:03.135Z,1000.37
2022-08-10T11:14:29.428Z,1000.3
2022-08-10T11:15:31.290Z,1000.27
2022-08-10T11:16:33.462Z,1000.31
2022-08-10T11:17:35.657Z,1000.31
2022-08-10T11:18:37.431Z,1000.29
2022-08-10T11:20:04.053Z,1000.34
2022-08-10T11:21:06.052Z,1000.34
2022-08-10T11:22:07.733Z,1000.3
2022-08-10T11:23:09.273Z,1000.35
2022-08-10T11:24:50.367Z,1000.26
2022-08-10T11:25:52.121Z,1000.27
2022-08-10T11:26:56.207Z,1000.32
2022-08-10T11:27:57.845Z,1000.24
2022-08-10T11:28:59.387Z,1000.25
2022-08-10T11:30:00.978Z,1000.27
2022-08-10T11:31:02.450Z,1000.29
2022-08-10T11:32:03.926Z,1000.29
2022-08-10T11:33:05.426Z,1000.24
2022-08-10T11:35:10.761Z,1000.25
2022-08-10T11:36:14.230Z,1000.25
2022-08-10T11:37:15.733Z,1000.25
2022-08-10T11:38:47.431Z,1000.26
2022-08-10T11:40:14.974Z,1000.22
2022-08-10T11:42:23.305Z,1000.19
2022-08-10T11:43:37.133Z,1000.22
2022-08-10T11:44:38.637Z,1000.18
2022-08-10T11:45:52.652Z,1000.2
2022-08-10T11:46:57.059Z,1000.13
2022-08-10T11:47:58.773Z,1000.15
2022-08-10T11:49:04.195Z,1000.14
2022-08-10T11:50:05.692Z,1000.17
2022-08-10T11:51:07.197Z,1000.17
2022-08-10T11:52:08.655Z,1000.12
2022-08-10T11:53:10.198Z,1000.16
2022-08-10T11:54:11.773Z,1000.11
2022-08-10T11:55:15.721Z,1000.16
2022-08-10T11:56:17.947Z,1000.16
2022-08-10T11:57:21.684Z,1000.16
2022-08-10T11:58:54.759Z,1000.15
2022-08-10T11:59:59.361Z,1000.15
2022-08-10T12:01:01.061Z,1000.14
2022-08-10T12:02:02.735Z,1000.09
2022-08-10T12:03:04.793Z,1000.13
2022-08-10T12:04:12.369Z,1000.1
2022-08-10T12:05:13.926Z,1000.06
2022-08-10T12:06:15.462Z,1000.07
2022-08-10T12:10:13.294Z,999.98
2022-08-10T12:11:25.374Z,1000.02
2022-08-10T12:12:27.293Z,1000.03
2022-08-10T12:13:28.980Z,1000.01
2022-08-10T12:14:30.722Z,1000.05
2022-08-10T12:15:32.314Z,1000.02
2022-08-10T12:16:33.832Z,999.96
2022-08-10T12:17:35.342Z,999.92
2022-08-10T12:18:36.780Z,999.91
2022-08-10T12:20:03.850Z,999.95
2022-08-10T12:21:05.574Z,999.95
2022-08-10T12:22:07.279Z,999.96
2022-08-10T12:23:08.798Z,999.99
2022-08-10T12:24:10.325Z,999.95
2022-08-10T12:25:58.100Z,999.93
2022-08-10T12:27:00.197Z,999.94
2022-08-10T12:28:01.716Z,999.94
2022-08-10T12:29:03.235Z,999.96
2022-08-10T12:30:04.814Z,999.91
2022-08-10T12:31:06.319Z,999.92
2022-08-10T12:32:07.983Z,999.85
2022-08-10T12:33:09.545Z,999.86
2022-08-10T12:34:11.123Z,999.81
2022-08-10T12:35:22.925Z,999.77
2022-08-10T12:36:28.132Z,999.77
2022-08-10T12:37:29.696Z,999.79
2022-08-10T12:38:31.276Z,999.8
2022-08-10T12:39:33.058Z,999.79
2022-08-10T12:40:37.352Z,999.77
2022-08-10T12:41:45.670Z,999.78
2022-08-10T12:44:05.823Z,999.81
2022-08-10T12:45:10.533Z,999.76
2022-08-10T12:46:12.061Z,999.72
2022-08-10T12:47:14.779Z,999.67
2022-08-10T12:48:16.287Z,999.69
2022-08-10T12:49:17.754Z,999.73
2022-08-10T12:50:34.025Z,999.74
2022-08-10T12:51:35.800Z,999.74
2022-08-10T12:52:37.781Z,999.69
2022-08-10T12:53:39.743Z,999.68
2022-08-10T12:54:41.395Z,999.68
2022-08-10T12:55:42.932Z,999.65
2022-08-10T12:56:44.401Z,999.63
2022-08-10T12:57:45.941Z,999.57
2022-08-10T12:59:01.303Z,999.62
2022-08-10T13:00:03.640Z,999.61
2022-08-10T13:01:18.323Z,999.63
2022-08-10T13:02:20.351Z,999.57
2022-08-10T13:04:24.595Z,999.56
2022-08-10T13:05:26.383Z,999.5
2022-08-10T13:06:27.990Z,999.51
2022-08-10T13:08:28.179Z,999.44
2022-08-10T13:09:30.042Z,999.47
2022-08-10T13:10:31.664Z,999.52
2022-08-10T13:12:45.394Z,999.46
2022-08-10T13:13:49.474Z,999.43
2022-08-10T13:14:52.956Z,999.44
2022-08-10T13:15:54.509Z,999.45
2022-08-10T13:16:56.125Z,999.41
2022-08-10T13:17:58.115Z,999.38
2022-08-10T13:18:59.813Z,999.34
2022-08-10T13:20:13.746Z,999.43
2022-08-10T13:21:21.290Z,999.41
2022-08-10T13:22:22.977Z,999.3
2022-08-10T13:23:24.490Z,999.36
2022-08-10T13:24:26.042Z,999.33
2022-08-10T13:25:27.565Z,999.33
2022-08-10T13:26:29.922Z,999.27
2022-08-10T13:28:35.197Z,999.29
2022-08-10T13:29:41.608Z,999.25
2022-08-10T13:30:51.059Z,999.23
2022-08-10T13:32:11.145Z,999.18
2022-08-10T13:33:12.879Z,999.15
2022-08-10T13:34:45.241Z,999.12
2022-08-10T13:35:47.154Z,999.11
2022-08-10T13:36:48.903Z,999.12
2022-08-10T13:37:50.613Z,999.03
2022-08-10T13:38:52.279Z,999.03
2022-08-10T13:40:01.078Z,999.05
2022-08-10T13:41:02.751Z,999.01
2022-08-10T13:42:04.288Z,999.04
2022-08-10T13:43:06.010Z,999.02
2022-08-10T13:44:07.469Z,998.99
2022-08-10T13:45:09.031Z,999.06
2022-08-10T13:46:22.989Z,999
2022-08-10T13:47:24.514Z,999
2022-08-10T13:48:25.999Z,998.93
2022-08-10T13:49:27.476Z,998.86
2022-08-10T13:50:37.514Z,998.89
2022-08-10T13:51:58.501Z,998.85
2022-08-10T13:53:01.745Z,998.87
2022-08-10T13:54:03.366Z,998.87
2022-08-10T13:55:04.812Z,998.89
2022-08-10T13:56:06.271Z,998.91
2022-08-10T13:57:07.819Z,999.01
2022-08-10T13:58:09.333Z,998.92
2022-08-10T13:59:10.924Z,998.91
2022-08-10T14:00:38.564Z,998.89
2022-08-10T14:01:40.368Z,998.88
2022-08-10T14:02:41.975Z,998.87
2022-08-10T14:03:43.582Z,998.87
2022-08-10T14:04:45.206Z,998.85
2022-08-10T14:05:46.797Z,998.82
2022-08-10T14:06:48.252Z,998.83
2022-08-10T14:08:01.576Z,998.84
2022-08-10T14:09:03.056Z,998.86
2022-08-10T14:10:05.079Z,998.84
2022-08-10T14:11:12.471Z,998.91
2022-08-10T14:12:14.040Z,998.86
2022-08-10T14:13:15.496Z,998.86
2022-08-10T14:14:17.050Z,998.82
2022-08-10T14:15:18.830Z,998.88
2022-08-10T14:16:20.303Z,998.89
2022-08-10T14:17:21.755Z,998.84
2022-08-10T14:18:23.257Z,998.82
2022-08-10T14:19:25.377Z,998.84
2022-08-10T14:20:28.923Z,998.83
2022-08-10T14:21:30.375Z,998.82
2022-08-10T14:22:34.774Z,998.8
2022-08-10T14:23:36.443Z,998.82
2022-08-10T14:24:38.085Z,998.81
2022-08-10T14:25:39.641Z,998.82
2022-08-10T14:26:41.207Z,998.79
2022-08-10T14:28:04.208Z,998.74
2022-08-10T14:29:05.897Z,998.71
2022-08-10T14:30:07.343Z,998.73
2022-08-10T14:31:08.898Z,998.69
2022-08-10T14:32:10.511Z,998.63
2022-08-10T14:33:12.018Z,998.66
2022-08-10T14:34:13.500Z,998.64
2022-08-10T14:36:24.355Z,998.59
2022-08-10T14:37:26.433Z,998.58
2022-08-10T14:38:28.525Z,998.53
2022-08-10T14:39:30.242Z,998.58
2022-08-10T14:40:31.832Z,998.56
2022-08-10T14:42:13.840Z,998.56
2022-08-10T14:43:29.448Z,998.61
2022-08-10T14:44:31.071Z,998.56
2022-08-10T14:45:32.714Z,998.57
2022-08-10T14:46:34.216Z,998.59
2022-08-10T14:47:55.974Z,998.6
2022-08-10T14:49:27.208Z,998.56
2022-08-10T14:50:33.601Z,998.55
2022-08-10T14:51:44.803Z,998.55
2022-08-10T14:52:46.381Z,998.55
2022-08-10T14:53:47.906Z,998.55
2022-08-10T14:54:50.682Z,998.57
2022-08-10T14:56:00.573Z,998.55
2022-08-10T14:57:11.969Z,998.58
2022-08-10T14:58:21.255Z,998.48
2022-08-10T14:59:35.764Z,998.5
2022-08-10T15:02:53.336Z,998.52
2022-08-10T15:04:03.610Z,998.54
2022-08-10T15:05:09.523Z,998.48
2022-08-10T15:06:18.559Z,998.49
2022-08-10T15:07:21.025Z,998.5
2022-08-10T15:08:22.526Z,998.48
2022-08-10T15:09:24.131Z,998.51
2022-08-10T15:10:28.206Z,998.47
2022-08-10T15:12:18.643Z,998.43
2022-08-10T15:13:35.326Z,998.42
2022-08-10T15:14:44.977Z,998.44
2022-08-10T15:16:13.451Z,998.37
2022-08-10T15:17:15.395Z,998.4
2022-08-10T15:18:16.891Z,998.35
2022-08-10T15:20:14.048Z,998.39
2022-08-10T15:21:18.157Z,998.41
2022-08-10T15:22:50.839Z,998.43
2022-08-10T15:24:09.949Z,998.4
2022-08-10T15:25:24.602Z,998.37
2022-08-10T15:26:27.313Z,998.44
2022-08-10T15:27:29.501Z,998.43
2022-08-10T15:29:25.643Z,998.46
2022-08-10T15:30:31.344Z,998.43
2022-08-10T15:31:33.842Z,998.38
2022-08-10T15:32:35.450Z,998.42
2022-08-10T15:34:03.933Z,998.41
2022-08-10T15:35:06.620Z,998.36
2022-08-10T15:36:08.137Z,998.3
2022-08-10T15:37:41.394Z,998.3
2022-08-10T15:38:45.325Z,998.32
2022-08-10T15:40:29.313Z,998.26
2022-08-10T15:42:00.173Z,998.31
2022-08-10T15:43:19.929Z,998.31
2022-08-10T15:44:27.706Z,998.24
2022-08-10T15:45:29.228Z,998.23
2022-08-10T15:46:30.770Z,998.26
2022-08-10T15:47:46.904Z,998.21
2022-08-10T15:48:48.634Z,998.22
2022-08-10T15:49:52.102Z,998.18
2022-08-10T15:50:53.704Z,998.17
2022-08-10T15:51:55.321Z,998.1
2022-08-10T15:53:03.113Z,998.1
2022-08-10T15:54:04.967Z,998.13
2022-08-10T15:55:45.735Z,998.13
2022-08-10T15:56:47.493Z,998.11
2022-08-10T15:57:48.923Z,998.12
2022-08-10T15:58:50.420Z,998.1
2022-08-10T15:59:55.558Z,998.2
2022-08-10T16:00:59.759Z,998.17
2022-08-10T16:02:17.590Z,998.12
2022-08-10T16:03:19.714Z,998.12
2022-08-10T16:04:34.911Z,998.12
2022-08-10T16:06:04.373Z,998.13
2022-08-10T16:07:07.714Z,998.13
2022-08-10T16:08:10.021Z,998.13
2022-08-10T16:10:28.477Z,998.11
2022-08-10T16:11:39.065Z,998.14
2022-08-10T16:12:40.519Z,998.12
2022-08-10T16:14:01.676Z,998.17
2022-08-10T16:15:09.052Z,998.17
2022-08-10T16:16:11.259Z,998.12
2022-08-10T16:17:12.811Z,998.15
2022-08-10T16:18:15.319Z,998.1
2022-08-10T16:19:25.558Z,998.09
2022-08-10T16:20:27.347Z,998.09
2022-08-10T16:21:28.914Z,998.04
2022-08-10T16:22:37.599Z,998.05
2022-08-10T16:23:41.198Z,998.03
2022-08-10T16:24:42.734Z,998.02
2022-08-10T16:25:58.247Z,997.99
2022-08-10T16:27:05.945Z,998
2022-08-10T16:28:07.419Z,997.98
2022-08-10T16:29:08.956Z,997.97
2022-08-10T16:30:10.423Z,997.96
2022-08-10T16:31:11.926Z,997.99
2022-08-10T16:32:13.580Z,997.99
2022-08-10T16:33:16.801Z,998.03
2022-08-10T16:34:18.243Z,997.99
2022-08-10T16:35:19.713Z,998.05
2022-08-10T16:36:21.280Z,998.03
2022-08-10T16:37:22.812Z,998.02
2022-08-10T16:38:24.594Z,998.03
2022-08-10T16:40:03.968Z,998.05
2022-08-10T16:42:05.929Z,997.95
2022-08-10T16:43:08.077Z,998